Terminal Aerodrome Forecast
Issued by NWS

Home | Current Version | Previous Version | Text Only | Print | Product List | Glossary On
Versions: 1 2 3 4 5 6 7 8 9 10 11 12 13 14 15 16 17 18 19 20 21 22 23
000
FTAK31 PAJN 181454 AAA
TAFAKT
TAF AMD
PAKT 181454Z 1815/1912 15015G25KT P6SM -RA OVC040 WS020/11035KT
     FM181800 14015G25KT 3SM -RA BR BKN015 BKN020 OVC030
      WS020/14050KT
     FM190000 14010KT 5SM -SHRA BR SCT015 OVC025 WS020/16035KT
     FM190800 15009KT 4SM -SHRA BR BKN007 OVC015=

USA.gov is the U.S. government's official web portal to all federal, state and local government web resources and services.